Powells Valley, Pennsylvania
Current Conditions -  °F | °C
As of 5:11 PM on Monday 26 Jan 2015 (Local Time) from KMUI Reporting Station
Unknown Precip Unknown Precip  
Wind Chill: 16°   Ceiling: 2200
Heat Index: 25°   Visibility: 10mi
Dew Point: 18°   Wind: 8mph
Humidity: 74%   Direction: 50°NE
Pressure: 29.79"   Gusts: NA
Location:  40.4949°N, 76.8115°W
Report Text: KMUI 262211Z AUTO 05007KT 10SM UP OVC022 M04/M08 A2979 RMK AO2
Loading
Personal Weather Stations






























Interactive Weather Map New forecast layout! Learn more

10-Day Weather Forecast

Advertisements
Track Severe Weather on mobile